createdAt,value
2022-08-26T00:01:37.593Z,14.96
2022-08-26T00:04:06.953Z,14.92
2022-08-26T00:06:36.881Z,14.89
2022-08-26T00:09:07.639Z,14.85
2022-08-26T00:11:37.943Z,14.83
2022-08-26T00:14:07.839Z,14.81
2022-08-26T00:16:37.851Z,14.81
2022-08-26T00:19:10.696Z,14.79
2022-08-26T00:21:41.053Z,14.76
2022-08-26T00:24:10.730Z,14.72
2022-08-26T00:26:41.896Z,14.69
2022-08-26T00:29:13.557Z,14.65
2022-08-26T00:31:45.231Z,14.62
2022-08-26T00:34:16.501Z,14.59
2022-08-26T00:36:52.098Z,14.57
2022-08-26T00:39:21.946Z,14.53
2022-08-26T00:41:53.657Z,14.50
2022-08-26T00:44:24.340Z,14.46
2022-08-26T00:47:00.495Z,14.43
2022-08-26T00:49:40.411Z,14.37
2022-08-26T00:52:15.994Z,14.33
2022-08-26T00:54:57.236Z,14.29
2022-08-26T00:57:27.179Z,14.27
2022-08-26T01:00:01.272Z,14.24
2022-08-26T01:02:30.967Z,14.21
2022-08-26T01:05:03.641Z,14.19
2022-08-26T01:07:34.676Z,14.16
2022-08-26T01:10:10.276Z,14.10
2022-08-26T01:12:56.169Z,14.01
2022-08-26T01:15:40.829Z,13.89
2022-08-26T01:18:14.047Z,13.74
2022-08-26T01:20:52.368Z,13.60
2022-08-26T01:23:42.432Z,13.52
2022-08-26T01:26:30.470Z,13.49
2022-08-26T01:29:03.418Z,13.48
2022-08-26T01:31:43.242Z,13.44
2022-08-26T01:34:21.687Z,13.40
2022-08-26T01:36:56.497Z,13.31
2022-08-26T01:39:26.618Z,13.21
2022-08-26T01:41:58.719Z,13.15
2022-08-26T01:44:39.895Z,13.12
2022-08-26T01:47:10.753Z,13.12
2022-08-26T01:49:40.507Z,13.11
2022-08-26T01:52:14.647Z,13.12
2022-08-26T01:54:46.350Z,13.11
2022-08-26T01:57:21.687Z,13.11
2022-08-26T01:59:57.398Z,13.09
2022-08-26T02:02:28.224Z,13.03
2022-08-26T02:05:05.115Z,13.00
2022-08-26T02:07:35.133Z,12.98
2022-08-26T02:10:05.662Z,12.96
2022-08-26T02:12:36.808Z,12.94
2022-08-26T02:15:12.174Z,12.93
2022-08-26T02:17:47.710Z,12.91
2022-08-26T02:20:20.059Z,12.90
2022-08-26T02:22:50.396Z,12.88
2022-08-26T02:25:41.831Z,12.85
2022-08-26T02:28:14.056Z,12.84
2022-08-26T02:30:45.236Z,12.81
2022-08-26T02:33:16.079Z,12.73
2022-08-26T02:35:47.362Z,12.68
2022-08-26T02:38:18.244Z,12.65
2022-08-26T02:40:48.770Z,12.61
2022-08-26T02:43:31.518Z,12.57
2022-08-26T02:46:03.461Z,12.54
2022-08-26T02:48:33.414Z,12.50
2022-08-26T02:51:02.856Z,12.47
2022-08-26T02:53:35.566Z,12.42
2022-08-26T02:56:08.951Z,12.38
2022-08-26T02:58:38.421Z,12.35
2022-08-26T03:01:09.024Z,12.31
2022-08-26T03:03:38.476Z,12.28
2022-08-26T03:06:08.665Z,12.25
2022-08-26T03:08:38.910Z,12.26
2022-08-26T03:11:09.444Z,12.25
2022-08-26T03:13:41.786Z,12.22
2022-08-26T03:16:11.828Z,12.20
2022-08-26T03:18:43.604Z,12.14
2022-08-26T03:21:23.055Z,12.07
2022-08-26T03:23:52.325Z,12.01
2022-08-26T03:26:21.621Z,11.97
2022-08-26T03:29:08.746Z,11.94
2022-08-26T03:31:39.691Z,11.91
2022-08-26T03:34:11.308Z,11.90
2022-08-26T03:36:41.611Z,11.90
2022-08-26T03:39:13.357Z,11.91
2022-08-26T03:41:46.015Z,11.90
2022-08-26T03:44:15.920Z,11.91
2022-08-26T03:46:46.797Z,11.94
2022-08-26T03:49:16.459Z,11.96
2022-08-26T03:51:45.720Z,11.98
2022-08-26T03:54:15.271Z,11.99
2022-08-26T03:56:46.523Z,12.00
2022-08-26T03:59:15.912Z,12.02
2022-08-26T04:01:44.848Z,12.06
2022-08-26T04:04:15.535Z,12.09
2022-08-26T04:06:45.038Z,12.12
2022-08-26T04:09:18.942Z,12.14
2022-08-26T04:11:50.363Z,12.18
2022-08-26T04:14:22.739Z,12.28
2022-08-26T04:16:55.279Z,12.44
2022-08-26T04:19:26.180Z,12.65
2022-08-26T04:21:55.478Z,12.87
2022-08-26T04:24:26.945Z,13.08
2022-08-26T04:26:57.268Z,13.25
2022-08-26T04:29:27.492Z,13.44
2022-08-26T04:31:56.775Z,13.61
2022-08-26T04:34:28.559Z,13.79
2022-08-26T04:36:58.363Z,13.93
2022-08-26T04:39:28.262Z,14.17
2022-08-26T04:41:57.798Z,14.39
2022-08-26T04:44:29.970Z,14.59
2022-08-26T04:46:59.143Z,14.82
2022-08-26T04:49:28.567Z,15.05
2022-08-26T04:52:05.612Z,15.37
2022-08-26T04:54:34.504Z,15.56
2022-08-26T04:57:03.781Z,15.64
2022-08-26T04:59:36.005Z,15.61
2022-08-26T05:02:08.391Z,15.69
2022-08-26T05:04:38.067Z,15.80
2022-08-26T05:07:08.372Z,15.99
2022-08-26T05:09:41.065Z,16.29
2022-08-26T05:12:10.873Z,16.74
2022-08-26T05:14:41.809Z,17.19
2022-08-26T05:17:13.988Z,17.50
2022-08-26T05:19:43.996Z,17.84
2022-08-26T05:22:14.243Z,18.12
2022-08-26T05:24:44.034Z,18.37
2022-08-26T05:27:14.567Z,18.48
2022-08-26T05:29:43.445Z,18.57
2022-08-26T05:32:13.259Z,18.73
2022-08-26T05:34:43.032Z,18.78
2022-08-26T05:37:13.643Z,18.72
2022-08-26T05:39:48.828Z,19.02
2022-08-26T05:42:21.767Z,19.40
2022-08-26T05:44:55.942Z,19.86
2022-08-26T05:47:26.987Z,20.24
2022-08-26T05:49:56.479Z,20.47
2022-08-26T05:52:26.138Z,20.74
2022-08-26T05:54:55.812Z,21.23
2022-08-26T05:57:24.583Z,21.58
2022-08-26T05:59:53.280Z,21.67
2022-08-26T06:02:22.188Z,21.47
2022-08-26T06:04:51.149Z,21.39
2022-08-26T06:07:40.525Z,21.35
2022-08-26T06:10:31.707Z,21.32
2022-08-26T06:13:09.356Z,21.41
2022-08-26T06:15:45.968Z,21.49
2022-08-26T06:18:17.137Z,21.62
2022-08-26T06:20:56.857Z,21.75
2022-08-26T06:23:48.415Z,21.96
2022-08-26T06:26:17.718Z,22.80
2022-08-26T06:28:46.607Z,23.48
2022-08-26T06:31:16.556Z,24.07
2022-08-26T06:33:45.328Z,24.54
2022-08-26T06:36:24.682Z,24.96
2022-08-26T06:38:54.148Z,25.32
2022-08-26T06:41:23.960Z,25.49
2022-08-26T06:43:54.088Z,25.41
2022-08-26T06:46:23.247Z,25.60
2022-08-26T06:48:55.810Z,25.35
2022-08-26T06:51:28.112Z,25.41
2022-08-26T06:54:00.108Z,25.34
2022-08-26T06:56:49.994Z,25.51
2022-08-26T06:59:19.782Z,25.83
2022-08-26T07:01:48.630Z,25.96
2022-08-26T07:04:20.223Z,26.03
2022-08-26T07:06:53.863Z,26.32
2022-08-26T07:09:26.097Z,26.69
2022-08-26T07:11:56.565Z,26.78
2022-08-26T07:14:26.838Z,26.91
2022-08-26T07:16:55.734Z,26.88
2022-08-26T07:19:29.883Z,26.59
2022-08-26T07:22:03.930Z,26.41
2022-08-26T07:24:35.406Z,26.31
2022-08-26T07:27:08.723Z,26.00
2022-08-26T07:29:39.697Z,25.99
2022-08-26T07:32:10.170Z,26.31
2022-08-26T07:34:39.569Z,26.57
2022-08-26T07:37:11.127Z,26.96
2022-08-26T07:39:43.216Z,27.34
2022-08-26T07:42:16.178Z,27.12
2022-08-26T07:44:48.340Z,27.22
2022-08-26T07:47:24.828Z,27.56
2022-08-26T07:49:57.922Z,27.57
2022-08-26T07:52:29.467Z,27.65
2022-08-26T07:55:00.284Z,27.99
2022-08-26T07:57:30.783Z,28.10
2022-08-26T08:00:00.015Z,28.21
2022-08-26T08:02:31.848Z,28.06
2022-08-26T08:05:01.095Z,28.03
2022-08-26T08:07:44.529Z,28.54
2022-08-26T08:10:19.206Z,28.81
2022-08-26T08:12:50.639Z,28.73
2022-08-26T08:15:25.320Z,28.80
2022-08-26T08:17:57.675Z,28.99
2022-08-26T08:20:28.815Z,29.54
2022-08-26T08:22:57.707Z,29.89
2022-08-26T08:25:26.801Z,30.26
2022-08-26T08:27:55.597Z,30.53
2022-08-26T08:30:27.106Z,30.75
2022-08-26T08:32:56.544Z,30.61
2022-08-26T08:35:26.767Z,31.11
2022-08-26T08:37:55.865Z,31.65
2022-08-26T08:40:27.022Z,31.99
2022-08-26T08:43:04.933Z,31.94
2022-08-26T08:45:42.956Z,31.95
2022-08-26T08:48:35.967Z,31.87
2022-08-26T08:51:19.300Z,31.50
2022-08-26T08:53:50.893Z,31.41
2022-08-26T08:56:29.058Z,31.54
2022-08-26T08:59:14.711Z,32.32
2022-08-26T09:01:53.925Z,32.57
2022-08-26T09:04:51.848Z,32.51
2022-08-26T09:07:47.565Z,32.73
2022-08-26T09:10:29.869Z,33.16
2022-08-26T09:12:59.887Z,33.30
2022-08-26T09:15:33.895Z,32.39
2022-08-26T09:18:25.214Z,32.75
2022-08-26T09:21:04.037Z,32.90
2022-08-26T09:23:36.339Z,33.28
2022-08-26T09:26:16.875Z,33.59
2022-08-26T09:28:49.765Z,34.11
2022-08-26T09:31:27.027Z,33.41
2022-08-26T09:34:12.314Z,33.87
2022-08-26T09:36:51.994Z,34.19
2022-08-26T09:39:34.169Z,35.09
2022-08-26T09:42:11.769Z,35.07
2022-08-26T09:45:00.611Z,34.98
2022-08-26T09:47:54.834Z,35.31
2022-08-26T09:50:32.612Z,34.94
2022-08-26T09:53:15.307Z,34.92
2022-08-26T09:55:48.193Z,35.22
2022-08-26T09:58:35.514Z,36.06
2022-08-26T10:01:10.128Z,36.81
2022-08-26T10:03:40.262Z,36.78
2022-08-26T10:06:17.957Z,36.28
2022-08-26T10:09:00.102Z,35.50
2022-08-26T10:11:47.757Z,36.55
2022-08-26T10:14:26.749Z,37.31
2022-08-26T10:17:07.489Z,37.59
2022-08-26T10:19:55.979Z,37.90
2022-08-26T10:22:47.458Z,37.35
2022-08-26T10:25:22.283Z,38.35
2022-08-26T10:27:55.471Z,38.00
2022-08-26T10:30:28.158Z,37.70
2022-08-26T10:33:10.569Z,37.19
2022-08-26T10:35:51.455Z,38.36
2022-08-26T10:38:30.751Z,38.58
2022-08-26T10:41:24.308Z,38.67
2022-08-26T10:43:58.660Z,38.86
2022-08-26T10:46:39.944Z,38.25
2022-08-26T10:49:13.604Z,38.98
2022-08-26T10:51:51.231Z,38.08
2022-08-26T10:54:46.744Z,38.06
2022-08-26T10:57:47.686Z,38.00
2022-08-26T11:00:41.387Z,38.51
2022-08-26T11:03:37.492Z,38.74
2022-08-26T11:06:16.414Z,38.70
2022-08-26T11:08:57.182Z,39.55
2022-08-26T11:11:42.463Z,39.87
2022-08-26T11:14:29.278Z,39.61
2022-08-26T11:17:00.326Z,38.87
2022-08-26T11:20:01.407Z,39.03
2022-08-26T11:22:35.264Z,39.21
2022-08-26T11:25:07.045Z,39.32
2022-08-26T11:27:37.994Z,39.08
2022-08-26T11:30:20.056Z,38.92
2022-08-26T11:32:55.603Z,38.53
2022-08-26T11:35:25.006Z,38.87
2022-08-26T11:38:12.846Z,38.61
2022-08-26T11:40:42.509Z,37.87
2022-08-26T11:43:19.996Z,38.37
2022-08-26T11:46:00.982Z,38.18
2022-08-26T11:48:33.560Z,37.78
2022-08-26T11:51:21.223Z,37.78
2022-08-26T11:53:51.551Z,37.82
2022-08-26T11:56:32.798Z,37.85
2022-08-26T11:59:07.554Z,37.85
2022-08-26T12:01:42.130Z,38.04
2022-08-26T12:04:18.231Z,38.41
2022-08-26T12:06:51.301Z,38.53
2022-08-26T12:09:31.586Z,38.88
2022-08-26T12:12:14.961Z,38.89
2022-08-26T12:14:44.610Z,39.01
2022-08-26T12:17:15.663Z,39.26
2022-08-26T12:19:44.651Z,39.31
2022-08-26T12:22:48.565Z,39.10
2022-08-26T12:25:24.112Z,38.90
2022-08-26T12:27:53.986Z,38.65
2022-08-26T12:30:26.273Z,38.95
2022-08-26T12:33:21.897Z,38.95
2022-08-26T12:35:56.752Z,38.45
2022-08-26T12:38:27.765Z,38.09
2022-08-26T12:40:57.607Z,37.95
2022-08-26T12:43:43.691Z,37.52
2022-08-26T12:46:27.896Z,36.94
2022-08-26T12:49:02.153Z,37.36
2022-08-26T12:51:33.100Z,37.67
2022-08-26T12:54:07.113Z,38.16
2022-08-26T12:56:40.089Z,38.47
2022-08-26T12:59:10.276Z,38.94
2022-08-26T13:01:44.168Z,39.02
2022-08-26T13:04:46.695Z,38.85
2022-08-26T13:07:27.666Z,38.42
2022-08-26T13:09:58.404Z,38.22
2022-08-26T13:12:37.607Z,38.37
2022-08-26T13:15:07.603Z,37.61
2022-08-26T13:17:36.337Z,37.13
2022-08-26T13:20:05.306Z,36.89
2022-08-26T13:22:34.368Z,36.63
2022-08-26T13:25:03.110Z,36.43
2022-08-26T13:27:31.801Z,36.23
2022-08-26T13:30:02.179Z,35.98
2022-08-26T13:32:32.146Z,36.10
2022-08-26T13:35:05.792Z,35.91
2022-08-26T13:37:35.629Z,35.96
2022-08-26T13:40:08.748Z,35.76
2022-08-26T13:42:37.533Z,35.52
2022-08-26T13:45:18.608Z,35.31
2022-08-26T13:47:47.710Z,35.13
2022-08-26T13:50:16.493Z,35.16
2022-08-26T13:52:45.073Z,35.08
2022-08-26T13:55:13.669Z,34.91
2022-08-26T13:57:42.134Z,34.49
2022-08-26T14:00:12.076Z,34.13
2022-08-26T14:02:43.606Z,34.02
2022-08-26T14:05:13.213Z,33.81
2022-08-26T14:07:42.990Z,33.74
2022-08-26T14:10:12.325Z,33.67
2022-08-26T14:12:40.914Z,33.71
2022-08-26T14:15:10.177Z,33.64
2022-08-26T14:17:39.460Z,33.57
2022-08-26T14:20:14.236Z,33.44
2022-08-26T14:23:03.418Z,33.20
2022-08-26T14:25:34.843Z,33.13
2022-08-26T14:28:04.788Z,32.97
2022-08-26T14:30:33.452Z,33.07
2022-08-26T14:33:02.138Z,33.07
2022-08-26T14:35:31.131Z,33.04
2022-08-26T14:38:00.330Z,33.04
2022-08-26T14:40:31.965Z,32.96
2022-08-26T14:43:02.998Z,32.87
2022-08-26T14:45:37.955Z,32.81
2022-08-26T14:48:07.978Z,32.71
2022-08-26T14:50:36.759Z,32.54
2022-08-26T14:53:24.081Z,32.33
2022-08-26T14:55:53.185Z,32.29
2022-08-26T14:58:21.861Z,32.20
2022-08-26T15:00:50.551Z,32.18
2022-08-26T15:05:52.790Z,31.85
2022-08-26T15:08:21.930Z,31.76
2022-08-26T15:10:51.231Z,31.83
2022-08-26T15:13:19.812Z,31.82
2022-08-26T15:15:48.449Z,31.75
2022-08-26T15:18:16.980Z,31.74
2022-08-26T15:20:45.560Z,31.73
2022-08-26T15:23:14.251Z,31.72
2022-08-26T15:25:44.837Z,31.63
2022-08-26T15:28:14.281Z,31.51
2022-08-26T15:30:43.685Z,31.43
2022-08-26T15:33:15.417Z,31.33
2022-08-26T15:35:45.576Z,31.22
2022-08-26T15:38:14.150Z,31.10
2022-08-26T15:40:43.749Z,30.99
2022-08-26T15:43:27.615Z,30.86
2022-08-26T15:45:58.006Z,30.67
2022-08-26T15:48:27.115Z,30.34
2022-08-26T15:50:59.226Z,30.19
2022-08-26T15:53:30.550Z,29.97
2022-08-26T15:56:01.188Z,29.85
2022-08-26T15:58:30.769Z,29.70
2022-08-26T16:01:00.170Z,29.56
2022-08-26T16:03:28.954Z,29.40
2022-08-26T16:05:57.579Z,29.22
2022-08-26T16:08:26.225Z,29.06
2022-08-26T16:11:03.407Z,28.70
2022-08-26T16:13:40.058Z,28.51
2022-08-26T16:16:09.924Z,28.42
2022-08-26T16:18:39.803Z,28.33
2022-08-26T16:21:13.175Z,28.25
2022-08-26T16:23:45.170Z,28.07
2022-08-26T16:26:17.928Z,27.93
2022-08-26T16:28:47.750Z,27.77
2022-08-26T16:31:17.621Z,27.70
2022-08-26T16:33:46.775Z,27.58
2022-08-26T16:36:15.568Z,27.47
2022-08-26T16:38:56.017Z,27.37
2022-08-26T16:41:29.120Z,27.27
2022-08-26T16:43:59.230Z,27.11
2022-08-26T16:46:28.656Z,27.01
2022-08-26T16:48:58.770Z,26.86
2022-08-26T16:51:28.562Z,26.70
2022-08-26T16:53:59.207Z,26.55
2022-08-26T16:56:33.715Z,26.44
2022-08-26T16:59:10.827Z,26.33
2022-08-26T17:01:39.673Z,26.24
2022-08-26T17:04:08.797Z,26.11
2022-08-26T17:06:38.593Z,25.98
2022-08-26T17:09:08.175Z,25.86
2022-08-26T17:11:36.853Z,25.73
2022-08-26T17:14:06.392Z,25.58
2022-08-26T17:16:35.514Z,25.42
2022-08-26T17:19:05.983Z,25.26
2022-08-26T17:21:36.809Z,25.11
2022-08-26T17:24:07.143Z,24.99
2022-08-26T17:26:37.601Z,24.90
2022-08-26T17:29:07.608Z,24.82
2022-08-26T17:31:36.507Z,24.77
2022-08-26T17:34:06.015Z,24.70
2022-08-26T17:36:35.722Z,24.60
2022-08-26T17:39:04.592Z,24.51
2022-08-26T17:41:33.504Z,24.39
2022-08-26T17:44:02.296Z,24.23
2022-08-26T17:46:33.245Z,24.11
2022-08-26T17:49:04.893Z,23.92
2022-08-26T17:51:33.673Z,23.78
2022-08-26T17:54:02.265Z,23.69
2022-08-26T17:56:31.465Z,23.61
2022-08-26T17:59:02.422Z,23.55
2022-08-26T18:01:33.458Z,23.49
2022-08-26T18:04:04.162Z,23.45
2022-08-26T18:06:33.402Z,23.37
2022-08-26T18:09:02.049Z,23.30
2022-08-26T18:11:32.044Z,23.24
2022-08-26T18:14:01.269Z,23.16
2022-08-26T18:16:34.454Z,23.08
2022-08-26T18:19:03.110Z,22.99
2022-08-26T18:21:32.439Z,22.89
2022-08-26T18:24:01.328Z,22.77
2022-08-26T18:26:34.629Z,22.69
2022-08-26T18:29:04.633Z,22.61
2022-08-26T18:31:34.013Z,22.53
2022-08-26T18:34:03.444Z,22.47
2022-08-26T18:36:34.493Z,22.39
2022-08-26T18:39:05.958Z,22.31
2022-08-26T18:41:39.742Z,22.22
2022-08-26T18:44:12.946Z,22.07
2022-08-26T18:46:44.428Z,21.92
2022-08-26T18:49:14.827Z,21.76
2022-08-26T18:51:45.296Z,21.60
2022-08-26T18:54:15.133Z,21.49
2022-08-26T18:56:44.355Z,21.40
2022-08-26T18:59:14.224Z,21.29
2022-08-26T19:01:42.874Z,21.18
2022-08-26T19:04:15.753Z,21.06
2022-08-26T19:06:47.887Z,20.98
2022-08-26T19:09:18.098Z,20.89
2022-08-26T19:11:47.239Z,20.83
2022-08-26T19:14:19.076Z,20.77
2022-08-26T19:16:50.219Z,20.72
2022-08-26T19:19:21.251Z,20.69
2022-08-26T19:21:50.764Z,20.69
2022-08-26T19:24:20.346Z,20.71
2022-08-26T19:26:58.058Z,20.71
2022-08-26T19:29:31.135Z,20.67
2022-08-26T19:32:00.128Z,20.62
2022-08-26T19:34:28.833Z,20.56
2022-08-26T19:36:58.705Z,20.53
2022-08-26T19:39:27.539Z,20.49
2022-08-26T19:41:56.129Z,20.44
2022-08-26T19:44:43.550Z,20.39
2022-08-26T19:47:13.465Z,20.36
2022-08-26T19:49:42.251Z,20.34
2022-08-26T19:52:11.856Z,20.32
2022-08-26T19:54:41.323Z,20.27
2022-08-26T19:57:10.047Z,20.19
2022-08-26T19:59:41.189Z,20.14
2022-08-26T20:02:11.246Z,20.07
2022-08-26T20:04:41.804Z,20.03
2022-08-26T20:07:12.958Z,19.96
2022-08-26T20:09:44.021Z,19.87
2022-08-26T20:12:14.457Z,19.78
2022-08-26T20:14:44.264Z,19.74
2022-08-26T20:17:13.966Z,19.72
2022-08-26T20:20:00.851Z,19.76
2022-08-26T20:22:29.464Z,19.79
2022-08-26T20:24:59.379Z,19.81
2022-08-26T20:27:34.352Z,19.80
2022-08-26T20:30:09.503Z,19.76
2022-08-26T20:32:39.153Z,19.70
2022-08-26T20:35:09.172Z,19.65
2022-08-26T20:37:39.041Z,19.59
2022-08-26T20:40:10.702Z,19.55
2022-08-26T20:42:39.529Z,19.53
2022-08-26T20:45:09.082Z,19.49
2022-08-26T20:47:39.055Z,19.45
2022-08-26T20:50:08.861Z,19.42
2022-08-26T20:52:37.242Z,19.37
2022-08-26T20:55:06.447Z,19.31
2022-08-26T20:57:35.129Z,19.25
2022-08-26T21:00:06.147Z,19.20
2022-08-26T21:02:35.158Z,19.18
2022-08-26T21:05:04.907Z,19.18
2022-08-26T21:07:33.659Z,19.17
2022-08-26T21:10:02.857Z,19.14
2022-08-26T21:12:32.158Z,19.12
2022-08-26T21:15:01.056Z,19.10
2022-08-26T21:17:29.731Z,19.08
2022-08-26T21:19:58.314Z,19.03
2022-08-26T21:22:26.867Z,19.00
2022-08-26T21:24:55.993Z,18.96
2022-08-26T21:27:26.333Z,18.91
2022-08-26T21:29:55.717Z,18.85
2022-08-26T21:32:24.888Z,18.81
2022-08-26T21:34:58.339Z,18.76
2022-08-26T21:37:29.091Z,18.71
2022-08-26T21:39:59.602Z,18.69
2022-08-26T21:42:33.410Z,18.68
2022-08-26T21:45:03.382Z,18.67
2022-08-26T21:47:32.899Z,18.64
2022-08-26T21:50:01.588Z,18.58
2022-08-26T21:52:30.288Z,18.51
2022-08-26T21:55:01.444Z,18.43
2022-08-26T21:57:30.629Z,18.32
2022-08-26T22:00:00.028Z,18.20
2022-08-26T22:02:30.279Z,17.93
2022-08-26T22:04:59.134Z,17.81
2022-08-26T22:07:28.026Z,17.66
2022-08-26T22:09:56.804Z,17.51
2022-08-26T22:12:25.699Z,17.46
2022-08-26T22:14:54.898Z,17.43
2022-08-26T22:17:24.202Z,17.42
2022-08-26T22:19:53.498Z,17.41
2022-08-26T22:22:23.731Z,17.40
2022-08-26T22:24:52.514Z,17.39
2022-08-26T22:27:21.099Z,17.37
2022-08-26T22:29:51.103Z,17.33
2022-08-26T22:32:19.893Z,17.28
2022-08-26T22:34:48.946Z,17.25
2022-08-26T22:37:17.675Z,17.21
2022-08-26T22:39:47.897Z,17.14
2022-08-26T22:42:17.301Z,17.07
2022-08-26T22:44:46.703Z,17.01
2022-08-26T22:47:15.905Z,16.95
2022-08-26T22:49:45.013Z,16.90
2022-08-26T22:52:14.952Z,16.86
2022-08-26T22:54:44.096Z,16.81
2022-08-26T22:57:14.874Z,16.78
2022-08-26T22:59:43.949Z,16.75
2022-08-26T23:02:14.249Z,16.72
2022-08-26T23:04:43.159Z,16.69
2022-08-26T23:07:12.361Z,16.67
2022-08-26T23:09:41.473Z,16.68
2022-08-26T23:12:11.260Z,16.69
2022-08-26T23:14:41.895Z,16.66
2022-08-26T23:17:12.726Z,16.63
2022-08-26T23:19:42.013Z,16.59
2022-08-26T23:22:12.455Z,16.58
2022-08-26T23:24:42.024Z,16.56
2022-08-26T23:27:11.450Z,16.53
2022-08-26T23:29:40.363Z,16.51
2022-08-26T23:32:10.876Z,16.45
2022-08-26T23:35:01.923Z,16.38
2022-08-26T23:37:35.880Z,16.30
2022-08-26T23:40:08.623Z,16.26
2022-08-26T23:42:37.993Z,16.24
2022-08-26T23:45:10.019Z,16.24
2022-08-26T23:47:41.515Z,16.23
2022-08-26T23:50:11.624Z,16.19
2022-08-26T23:52:59.658Z,16.13
2022-08-26T23:55:29.161Z,16.04
2022-08-26T23:57:59.485Z,15.98
